createdAt,value
2019-03-23T00:01:45.601Z,85.95
2019-03-23T00:04:12.929Z,86.60
2019-03-23T00:06:40.193Z,88.70
2019-03-23T00:09:07.426Z,88.97
2019-03-23T00:11:34.610Z,89.17
2019-03-23T00:14:01.987Z,87.60
2019-03-23T00:16:29.246Z,83.15
2019-03-23T00:18:56.433Z,88.75
2019-03-23T00:21:23.648Z,84.22
2019-03-23T00:23:51.104Z,92.53
2019-03-23T00:26:18.287Z,87.82
2019-03-23T00:28:45.483Z,85.10
2019-03-23T00:31:12.806Z,86.78
2019-03-23T00:33:40.068Z,91.02
2019-03-23T00:36:07.277Z,91.12
2019-03-23T00:38:35.239Z,87.65
2019-03-23T00:41:02.460Z,93.52
2019-03-23T00:43:29.904Z,95.00
2019-03-23T00:45:57.170Z,97.45
2019-03-23T00:48:24.457Z,100.60
2019-03-23T00:50:54.533Z,101.18
2019-03-23T00:53:21.781Z,107.58
2019-03-23T00:55:49.004Z,98.58
2019-03-23T00:58:17.571Z,105.10
2019-03-23T01:00:44.832Z,100.25
2019-03-23T01:03:12.738Z,100.38
2019-03-23T01:05:41.707Z,103.55
2019-03-23T01:08:09.041Z,110.68
2019-03-23T01:10:38.001Z,108.50
2019-03-23T01:13:05.280Z,110.28
2019-03-23T01:15:32.580Z,106.37
2019-03-23T01:17:59.845Z,108.72
2019-03-23T01:20:27.797Z,105.87
2019-03-23T01:22:55.593Z,102.12
2019-03-23T01:25:22.880Z,102.85
2019-03-23T01:27:50.124Z,102.42
2019-03-23T01:30:19.007Z,103.65
2019-03-23T01:32:46.277Z,99.80
2019-03-23T01:35:13.690Z,99.58
2019-03-23T01:37:41.013Z,101.07
2019-03-23T01:40:08.411Z,97.95
2019-03-23T01:42:35.771Z,99.43
2019-03-23T01:45:03.969Z,97.22
2019-03-23T01:47:31.841Z,95.67
2019-03-23T01:49:59.365Z,114.28
2019-03-23T01:52:28.228Z,110.30
2019-03-23T01:54:55.894Z,102.95
2019-03-23T01:57:23.789Z,93.27
2019-03-23T01:59:51.415Z,95.30
2019-03-23T02:02:18.655Z,97.80
2019-03-23T02:04:45.859Z,99.60
2019-03-23T02:07:14.234Z,103.15
2019-03-23T02:09:42.136Z,104.43
2019-03-23T02:12:09.541Z,104.07
2019-03-23T02:14:36.787Z,115.20
2019-03-23T02:17:04.085Z,97.97
2019-03-23T02:19:31.334Z,109.07
2019-03-23T02:21:58.601Z,97.37
2019-03-23T02:24:26.111Z,104.10
2019-03-23T02:26:53.384Z,96.65
2019-03-23T02:29:20.684Z,95.80
2019-03-23T02:31:49.146Z,104.40
2019-03-23T02:34:16.500Z,99.40
2019-03-23T02:36:43.771Z,101.80
2019-03-23T02:39:11.072Z,97.00
2019-03-23T02:41:38.406Z,102.58
2019-03-23T02:44:06.310Z,105.87
2019-03-23T02:46:33.985Z,106.03
2019-03-23T02:49:01.768Z,102.17
2019-03-23T02:51:29.031Z,102.50
2019-03-23T02:53:56.334Z,104.27
2019-03-23T02:56:23.644Z,108.67
2019-03-23T02:58:52.193Z,111.57
2019-03-23T03:01:19.555Z,104.95
2019-03-23T03:03:46.859Z,105.35
2019-03-23T03:06:14.095Z,108.32
2019-03-23T03:08:42.596Z,99.32
2019-03-23T03:11:09.826Z,98.95
2019-03-23T03:13:37.223Z,103.60
2019-03-23T03:16:04.538Z,101.00
2019-03-23T03:18:31.972Z,100.05
2019-03-23T03:20:59.331Z,108.55
2019-03-23T03:23:26.582Z,113.97
2019-03-23T03:25:53.905Z,105.32
2019-03-23T03:28:23.848Z,126.82
2019-03-23T03:30:51.257Z,107.12
2019-03-23T03:33:18.547Z,111.90
2019-03-23T03:35:47.191Z,115.20
2019-03-23T03:38:14.424Z,116.45
2019-03-23T03:40:41.654Z,137.50
2019-03-23T03:43:09.055Z,124.38
2019-03-23T03:45:36.388Z,104.67
2019-03-23T03:48:03.640Z,102.67
2019-03-23T03:50:30.973Z,118.33
2019-03-23T03:52:59.989Z,113.70
2019-03-23T03:55:27.986Z,110.53
2019-03-23T03:57:55.246Z,124.77
2019-03-23T04:00:22.603Z,97.65
2019-03-23T04:02:49.928Z,136.32
2019-03-23T04:05:17.649Z,125.53
2019-03-23T04:07:45.100Z,97.20
2019-03-23T04:10:12.362Z,117.87
2019-03-23T04:12:39.675Z,104.03
2019-03-23T04:15:07.799Z,93.92
2019-03-23T04:17:35.212Z,125.85
2019-03-23T04:20:05.558Z,133.07
2019-03-23T04:22:32.827Z,140.20
2019-03-23T04:25:00.058Z,128.93
2019-03-23T04:27:27.540Z,112.30
2019-03-23T04:29:54.950Z,122.20
2019-03-23T04:32:22.232Z,114.20
2019-03-23T04:34:49.685Z,100.72
2019-03-23T04:37:16.996Z,133.27
2019-03-23T04:39:44.338Z,132.63
2019-03-23T04:42:11.589Z,104.63
2019-03-23T04:44:39.506Z,118.28
2019-03-23T04:47:06.718Z,113.17
2019-03-23T04:49:34.083Z,97.25
2019-03-23T04:52:02.598Z,124.12
2019-03-23T04:54:30.476Z,132.50
2019-03-23T04:56:57.748Z,128.70
2019-03-23T04:59:25.091Z,117.97
2019-03-23T05:01:52.412Z,115.57
2019-03-23T05:04:19.777Z,126.62
2019-03-23T05:06:47.151Z,133.70
2019-03-23T05:09:15.786Z,113.17
2019-03-23T05:11:43.008Z,132.97
2019-03-23T05:14:10.266Z,99.47
2019-03-23T05:16:38.221Z,104.87
2019-03-23T05:19:05.562Z,89.55
2019-03-23T05:21:35.767Z,118.25
2019-03-23T05:24:03.060Z,88.35
2019-03-23T05:26:30.272Z,104.85
2019-03-23T05:28:57.511Z,105.55
2019-03-23T05:31:25.370Z,106.67
2019-03-23T05:33:52.685Z,107.07
2019-03-23T05:36:20.024Z,109.00
2019-03-23T05:38:48.010Z,114.95
2019-03-23T05:41:15.825Z,105.87
2019-03-23T05:43:43.134Z,105.10
2019-03-23T05:46:10.407Z,101.35
2019-03-23T05:48:37.682Z,93.37
2019-03-23T05:51:05.120Z,107.83
2019-03-23T05:53:32.529Z,104.83
2019-03-23T05:55:59.829Z,101.47
2019-03-23T05:58:27.538Z,91.70
2019-03-23T06:00:54.935Z,91.37
2019-03-23T06:03:22.265Z,89.17
2019-03-23T06:05:49.565Z,88.20
2019-03-23T06:08:16.916Z,106.95
2019-03-23T06:10:44.182Z,98.10
2019-03-23T06:13:11.432Z,104.00
2019-03-23T06:15:38.688Z,116.50
2019-03-23T06:18:06.011Z,95.90
2019-03-23T06:20:33.286Z,88.17
2019-03-23T06:23:00.637Z,98.47
2019-03-23T06:25:27.839Z,104.10
2019-03-23T06:27:56.290Z,93.52
2019-03-23T06:30:25.275Z,99.35
2019-03-23T06:32:52.621Z,93.22
2019-03-23T06:35:22.616Z,97.27
2019-03-23T06:37:49.870Z,89.23
2019-03-23T06:40:17.087Z,92.78
2019-03-23T06:42:44.397Z,92.78
2019-03-23T06:45:11.829Z,89.80
2019-03-23T06:47:39.054Z,96.05
2019-03-23T06:50:07.499Z,91.72
2019-03-23T06:52:34.882Z,94.47
2019-03-23T06:55:02.237Z,75.62
2019-03-23T06:57:29.519Z,80.35
2019-03-23T06:59:56.791Z,75.42
2019-03-23T07:02:24.110Z,76.02
2019-03-23T07:04:51.437Z,71.12
2019-03-23T07:07:18.726Z,81.20
2019-03-23T07:09:45.997Z,80.35
2019-03-23T07:12:13.240Z,74.72
2019-03-23T07:14:40.472Z,78.13
2019-03-23T07:17:07.906Z,67.15
2019-03-23T07:19:35.761Z,72.47
2019-03-23T07:22:03.536Z,69.25
2019-03-23T07:24:31.438Z,76.15
2019-03-23T07:26:58.860Z,76.75
2019-03-23T07:29:26.139Z,64.77
2019-03-23T07:31:53.422Z,70.45
2019-03-23T07:34:20.715Z,84.83
2019-03-23T07:36:47.974Z,70.45
2019-03-23T07:39:15.250Z,66.10
2019-03-23T07:41:42.632Z,71.77
2019-03-23T07:44:09.927Z,68.20
2019-03-23T07:46:37.379Z,68.20
2019-03-23T07:49:05.459Z,65.45
2019-03-23T07:51:34.362Z,62.15
2019-03-23T07:54:02.743Z,64.70
2019-03-23T07:56:31.895Z,72.27
2019-03-23T07:58:59.165Z,57.33
2019-03-23T08:01:26.410Z,65.17
2019-03-23T08:03:53.857Z,57.73
2019-03-23T08:06:21.200Z,58.75
2019-03-23T08:08:51.419Z,59.95
2019-03-23T08:11:19.314Z,58.23
2019-03-23T08:13:49.195Z,56.33
2019-03-23T08:16:16.709Z,54.80
2019-03-23T08:18:44.096Z,56.60
2019-03-23T08:21:11.324Z,58.40
2019-03-23T08:23:38.694Z,60.92
2019-03-23T08:26:06.038Z,61.77
2019-03-23T08:28:33.328Z,52.43
2019-03-23T08:31:00.628Z,54.33
2019-03-23T08:33:29.308Z,52.90
2019-03-23T08:38:45.473Z,53.27
2019-03-23T08:41:13.600Z,56.23
2019-03-23T08:43:40.896Z,51.95
2019-03-23T08:46:08.193Z,52.80
2019-03-23T08:48:36.037Z,50.47
2019-03-23T08:51:03.398Z,52.65
2019-03-23T08:53:30.735Z,47.65
2019-03-23T08:55:58.036Z,51.83
2019-03-23T08:58:27.665Z,47.25
2019-03-23T09:00:55.013Z,50.75
2019-03-23T09:03:22.272Z,43.02
2019-03-23T09:05:49.499Z,40.20
2019-03-23T09:08:18.554Z,41.85
2019-03-23T09:10:46.130Z,37.38
2019-03-23T09:13:13.339Z,37.87
2019-03-23T09:15:40.607Z,34.50
2019-03-23T09:18:07.816Z,35.73
2019-03-23T09:20:35.079Z,33.75
2019-03-23T09:23:02.382Z,35.95
2019-03-23T09:25:29.645Z,36.75
2019-03-23T09:27:56.959Z,35.73
2019-03-23T09:30:24.254Z,32.28
2019-03-23T09:32:51.577Z,33.83
2019-03-23T09:35:18.829Z,32.83
2019-03-23T09:37:46.226Z,32.35
2019-03-23T09:40:13.558Z,35.85
2019-03-23T09:42:40.809Z,28.85
2019-03-23T09:45:08.234Z,30.25
2019-03-23T09:47:35.578Z,28.70
2019-03-23T09:50:03.408Z,26.42
2019-03-23T09:52:30.656Z,20.48
2019-03-23T09:54:57.882Z,18.27
2019-03-23T09:57:25.166Z,21.20
2019-03-23T09:59:52.396Z,19.37
2019-03-23T10:02:19.661Z,20.25
2019-03-23T10:04:48.500Z,16.55
2019-03-23T10:07:16.265Z,18.30
2019-03-23T10:09:45.215Z,25.37
2019-03-23T10:12:12.617Z,22.27
2019-03-23T10:14:39.987Z,19.50
2019-03-23T10:17:07.384Z,18.45
2019-03-23T10:19:35.696Z,16.52
2019-03-23T10:22:04.589Z,18.98
2019-03-23T10:24:31.775Z,19.90
2019-03-23T10:26:59.014Z,21.62
2019-03-23T10:29:26.311Z,21.55
2019-03-23T10:31:55.676Z,22.75
2019-03-23T10:34:22.500Z,20.40
2019-03-23T10:36:49.791Z,22.42
2019-03-23T10:39:18.677Z,21.40
2019-03-23T10:41:45.977Z,20.23
2019-03-23T10:44:13.180Z,21.93
2019-03-23T10:46:40.442Z,19.73
2019-03-23T10:49:07.784Z,23.73
2019-03-23T10:51:35.104Z,22.10
2019-03-23T10:54:03.993Z,27.57
2019-03-23T10:56:31.464Z,21.42
2019-03-23T10:58:58.732Z,23.47
2019-03-23T11:01:26.147Z,22.00
2019-03-23T11:03:53.453Z,19.27
2019-03-23T11:06:20.818Z,19.00
2019-03-23T11:08:53.883Z,22.67
2019-03-23T11:11:29.222Z,21.30
2019-03-23T11:13:56.303Z,24.15
2019-03-23T11:16:25.101Z,23.75
2019-03-23T11:18:52.433Z,22.52
2019-03-23T11:21:19.735Z,20.82
2019-03-23T11:23:49.355Z,26.60
2019-03-23T11:26:16.662Z,17.40
2019-03-23T11:28:44.001Z,23.73
2019-03-23T11:31:11.528Z,19.65
2019-03-23T11:33:40.543Z,24.40
2019-03-23T11:36:07.902Z,26.73
2019-03-23T11:38:39.546Z,23.15
2019-03-23T11:41:56.306Z,22.80
2019-03-23T11:48:39.236Z,24.52
2019-03-23T11:53:28.173Z,22.77
2019-03-23T12:04:51.858Z,22.83
2019-03-23T12:07:26.001Z,21.77
2019-03-23T12:09:56.057Z,20.25
2019-03-23T12:12:25.897Z,20.97
2019-03-23T12:15:02.584Z,22.73
2019-03-23T12:17:32.354Z,22.00
2019-03-23T12:20:04.381Z,21.65
2019-03-23T12:22:32.276Z,19.77
2019-03-23T12:25:02.549Z,22.05
2019-03-23T12:27:29.939Z,18.60
2019-03-23T12:30:06.823Z,23.50
2019-03-23T12:32:27.324Z,22.62
2019-03-23T12:34:54.618Z,18.30
2019-03-23T12:37:22.127Z,21.15
2019-03-23T12:39:49.319Z,20.15
2019-03-23T12:42:20.311Z,24.30
2019-03-23T12:44:47.625Z,22.70
2019-03-23T12:47:14.997Z,20.10
2019-03-23T12:49:42.246Z,21.50
2019-03-23T12:52:09.494Z,19.73
2019-03-23T12:54:40.738Z,23.57
2019-03-23T12:57:07.961Z,23.45
2019-03-23T12:59:35.319Z,18.75
2019-03-23T13:02:04.152Z,22.25
2019-03-23T13:04:31.510Z,25.75
2019-03-23T13:06:58.706Z,23.42
2019-03-23T13:09:25.963Z,21.48
2019-03-23T13:11:53.320Z,24.95
2019-03-23T13:14:20.550Z,24.85
2019-03-23T13:16:48.559Z,24.95
2019-03-23T13:19:15.800Z,23.50
2019-03-23T13:21:43.125Z,23.12
2019-03-23T13:24:10.351Z,24.63
2019-03-23T13:26:37.548Z,23.15
2019-03-23T13:29:04.787Z,19.50
2019-03-23T13:31:32.071Z,21.55
2019-03-23T13:33:59.263Z,19.87
2019-03-23T13:36:26.483Z,20.73
2019-03-23T13:38:53.686Z,21.35
2019-03-23T13:41:20.883Z,20.85
2019-03-23T13:43:48.121Z,20.82
2019-03-23T13:46:16.553Z,20.92
2019-03-23T13:48:43.806Z,19.90
2019-03-23T13:51:11.035Z,21.42
2019-03-23T13:53:38.380Z,22.48
2019-03-23T13:56:05.635Z,21.95
2019-03-23T13:58:34.580Z,20.73
2019-03-23T14:01:02.111Z,23.50
2019-03-23T14:03:29.317Z,20.37
2019-03-23T14:05:56.655Z,21.40
2019-03-23T14:08:24.655Z,19.97
2019-03-23T14:10:51.907Z,20.87
2019-03-23T14:13:19.214Z,18.60
2019-03-23T14:15:46.520Z,19.32
2019-03-23T14:18:13.720Z,19.90
2019-03-23T14:20:41.059Z,20.23
2019-03-23T14:23:08.374Z,17.05
2019-03-23T14:25:35.642Z,24.80
2019-03-23T14:28:02.940Z,18.20
2019-03-23T14:30:30.267Z,17.35
2019-03-23T14:32:57.488Z,18.75
2019-03-23T14:35:24.703Z,22.10
2019-03-23T14:37:51.988Z,16.80
2019-03-23T14:40:19.201Z,21.17
2019-03-23T14:42:48.355Z,20.77
2019-03-23T14:45:15.879Z,19.42
2019-03-23T14:47:43.200Z,18.57
2019-03-23T14:50:10.438Z,20.75
2019-03-23T14:52:37.869Z,20.95
2019-03-23T14:55:05.517Z,21.37
2019-03-23T14:57:32.750Z,22.25
2019-03-23T15:00:00.058Z,19.60
2019-03-23T15:02:28.858Z,21.05
2019-03-23T15:04:56.083Z,24.87
2019-03-23T15:07:25.919Z,24.35
2019-03-23T15:09:53.167Z,20.62
2019-03-23T15:12:20.412Z,18.12
2019-03-23T15:14:47.648Z,19.80
2019-03-23T15:17:14.869Z,21.00
2019-03-23T15:19:42.336Z,19.25
2019-03-23T15:22:09.581Z,21.70
2019-03-23T15:24:36.894Z,20.52
2019-03-23T15:27:04.256Z,21.50
2019-03-23T15:29:31.614Z,22.10
2019-03-23T15:31:58.967Z,26.23
2019-03-23T15:34:26.288Z,34.30
2019-03-23T15:36:53.641Z,24.15
2019-03-23T15:39:21.703Z,20.77
2019-03-23T15:41:49.045Z,27.17
2019-03-23T15:44:16.493Z,21.35
2019-03-23T15:46:43.880Z,22.52
2019-03-23T15:49:11.161Z,27.70
2019-03-23T15:51:39.988Z,29.50
2019-03-23T15:54:07.303Z,28.32
2019-03-23T15:56:34.685Z,26.15
2019-03-23T15:59:03.217Z,28.47
2019-03-23T16:01:30.538Z,26.05
2019-03-23T16:03:57.824Z,29.32
2019-03-23T16:06:25.026Z,23.45
2019-03-23T16:08:52.231Z,30.37
2019-03-23T16:11:19.465Z,28.40
2019-03-23T16:13:47.883Z,27.35
2019-03-23T16:16:15.092Z,31.85
2019-03-23T16:18:42.491Z,21.35
2019-03-23T16:21:09.926Z,29.52
2019-03-23T16:23:37.785Z,24.32
2019-03-23T16:26:05.116Z,23.07
2019-03-23T16:28:32.400Z,23.50
2019-03-23T16:31:00.174Z,25.82
2019-03-23T16:33:27.459Z,30.32
2019-03-23T16:35:54.718Z,28.75
2019-03-23T16:38:22.132Z,28.63
2019-03-23T16:40:49.555Z,26.35
2019-03-23T16:43:16.794Z,24.52
2019-03-23T16:45:44.685Z,22.20
2019-03-23T16:48:11.948Z,24.30
2019-03-23T16:50:39.220Z,24.40
2019-03-23T16:53:06.608Z,24.20
2019-03-23T16:55:33.893Z,30.30
2019-03-23T16:58:02.519Z,26.30
2019-03-23T17:00:33.883Z,24.30
2019-03-23T17:03:01.349Z,26.20
2019-03-23T17:05:28.698Z,23.65
2019-03-23T17:07:55.930Z,22.63
2019-03-23T17:10:23.208Z,26.17
2019-03-23T17:12:55.283Z,26.48
2019-03-23T17:15:19.397Z,26.30
2019-03-23T17:17:46.651Z,27.30
2019-03-23T17:20:13.934Z,29.33
2019-03-23T17:22:41.159Z,30.23
2019-03-23T17:25:08.443Z,27.95
2019-03-23T17:27:35.788Z,33.23
2019-03-23T17:30:04.325Z,39.92
2019-03-23T17:32:31.656Z,33.38
2019-03-23T17:34:58.950Z,28.70
2019-03-23T17:37:26.379Z,34.50
2019-03-23T17:39:53.659Z,34.03
2019-03-23T17:42:20.947Z,26.00
2019-03-23T17:44:48.234Z,32.30
2019-03-23T17:47:16.096Z,29.98
2019-03-23T17:49:43.607Z,29.10
2019-03-23T17:52:10.931Z,28.23
2019-03-23T17:54:38.260Z,31.10
2019-03-23T17:57:05.554Z,26.10
2019-03-23T17:59:32.821Z,36.38
2019-03-23T18:02:00.191Z,25.45
2019-03-23T18:04:29.053Z,35.98
2019-03-23T18:06:56.478Z,44.27
2019-03-23T18:09:23.864Z,71.10
2019-03-23T18:11:51.139Z,69.20
2019-03-23T18:14:18.739Z,33.35
2019-03-23T18:16:46.034Z,30.67
2019-03-23T18:19:13.260Z,30.77
2019-03-23T18:21:40.513Z,27.22
2019-03-23T18:24:07.891Z,27.00
2019-03-23T18:26:35.208Z,30.20
2019-03-23T18:29:02.594Z,26.37
2019-03-23T18:31:29.827Z,31.65
2019-03-23T18:33:57.099Z,26.75
2019-03-23T18:36:24.925Z,30.05
2019-03-23T18:38:52.179Z,24.80
2019-03-23T18:41:19.385Z,32.33
2019-03-23T18:43:46.629Z,22.27
2019-03-23T18:46:13.875Z,24.82
2019-03-23T18:48:41.243Z,20.08
2019-03-23T18:51:08.579Z,24.45
2019-03-23T18:53:35.971Z,23.00
2019-03-23T18:56:03.537Z,25.33
2019-03-23T18:58:30.892Z,26.97
2019-03-23T19:00:58.161Z,27.35
2019-03-23T19:03:27.335Z,32.80
2019-03-23T19:05:54.612Z,62.58
2019-03-23T19:08:23.556Z,100.53
2019-03-23T19:10:51.661Z,136.50
2019-03-23T19:13:19.055Z,93.55
2019-03-23T19:15:46.343Z,81.72
2019-03-23T19:18:13.655Z,73.73
2019-03-23T19:20:40.874Z,39.50
2019-03-23T19:23:08.472Z,34.33
2019-03-23T19:25:35.756Z,39.45
2019-03-23T19:28:03.115Z,28.17
2019-03-23T19:30:30.428Z,24.90
2019-03-23T19:32:57.714Z,28.25
2019-03-23T19:35:25.059Z,28.90
2019-03-23T19:37:52.382Z,28.40
2019-03-23T19:40:21.106Z,21.73
2019-03-23T19:42:48.453Z,25.50
2019-03-23T19:45:15.909Z,24.72
2019-03-23T19:47:43.197Z,23.60
2019-03-23T19:50:10.938Z,23.67
2019-03-23T19:52:39.333Z,26.27
2019-03-23T19:55:06.916Z,26.30
2019-03-23T19:57:34.314Z,27.10
2019-03-23T20:00:01.662Z,29.77
2019-03-23T20:02:30.351Z,36.10
2019-03-23T20:04:57.685Z,32.85
2019-03-23T20:07:32.766Z,23.95
2019-03-23T20:09:57.291Z,31.03
2019-03-23T20:12:24.590Z,26.50
2019-03-23T20:14:53.754Z,24.57
2019-03-23T20:17:21.086Z,29.45
2019-03-23T20:19:48.405Z,28.50
2019-03-23T20:22:15.673Z,26.00
2019-03-23T20:24:42.932Z,29.35
2019-03-23T20:27:10.374Z,26.27
2019-03-23T20:29:37.729Z,26.75
2019-03-23T20:32:06.849Z,25.65
2019-03-23T20:34:34.311Z,35.57
2019-03-23T20:37:08.122Z,23.87
2019-03-23T20:39:36.462Z,24.32
2019-03-23T20:42:03.736Z,26.48
2019-03-23T20:44:31.272Z,32.33
2019-03-23T20:46:58.622Z,28.05
2019-03-23T20:49:26.088Z,25.27
2019-03-23T20:51:55.071Z,31.02
2019-03-23T20:54:22.682Z,31.07
2019-03-23T20:56:50.224Z,30.45
2019-03-23T20:59:19.302Z,29.70
2019-03-23T21:01:47.353Z,29.12
2019-03-23T21:04:14.774Z,28.27
2019-03-23T21:06:43.349Z,29.13
2019-03-23T21:09:10.875Z,31.57
2019-03-23T21:11:39.197Z,28.32
2019-03-23T21:14:06.751Z,26.73
2019-03-23T21:16:34.099Z,29.63
2019-03-23T21:19:01.388Z,33.42
2019-03-23T21:21:28.744Z,27.98
2019-03-23T21:23:56.312Z,30.10
2019-03-23T21:26:23.762Z,28.65
2019-03-23T21:28:51.118Z,35.08
2019-03-23T21:31:19.193Z,32.93
2019-03-23T21:33:46.610Z,29.02
2019-03-23T21:36:14.056Z,30.95
2019-03-23T21:38:41.400Z,32.58
2019-03-23T21:41:08.693Z,33.95
2019-03-23T21:43:35.997Z,27.22
2019-03-23T21:46:03.361Z,32.55
2019-03-23T21:48:30.626Z,30.40
2019-03-23T21:50:58.050Z,28.55
2019-03-23T21:53:26.902Z,26.55
2019-03-23T21:55:54.290Z,32.98
2019-03-23T21:58:21.574Z,37.98
2019-03-23T22:00:48.858Z,33.98
2019-03-23T22:03:17.405Z,33.40
2019-03-23T22:05:44.860Z,32.33
2019-03-23T22:08:12.147Z,36.40
2019-03-23T22:10:40.000Z,34.98
2019-03-23T22:13:09.006Z,35.70
2019-03-23T22:15:37.668Z,33.28
2019-03-23T22:18:04.993Z,35.38
2019-03-23T22:20:32.428Z,35.00
2019-03-23T22:22:59.651Z,32.75
2019-03-23T22:25:28.135Z,28.35
2019-03-23T22:27:56.110Z,29.40
2019-03-23T22:30:23.322Z,29.45
2019-03-23T22:32:50.655Z,30.00
2019-03-23T22:35:18.327Z,29.47
2019-03-23T22:37:45.630Z,31.52
2019-03-23T22:40:12.894Z,32.00
2019-03-23T22:42:41.900Z,26.97
2019-03-23T22:45:09.272Z,27.87
2019-03-23T22:47:36.642Z,29.80
2019-03-23T22:50:07.106Z,30.02
2019-03-23T22:52:34.466Z,28.38
2019-03-23T22:55:02.514Z,27.07
2019-03-23T22:57:29.795Z,26.37
2019-03-23T22:59:57.163Z,29.25
2019-03-23T23:02:26.062Z,31.48
2019-03-23T23:04:53.575Z,32.42
2019-03-23T23:07:21.120Z,31.93
2019-03-23T23:09:51.186Z,28.07
2019-03-23T23:12:18.916Z,29.77
2019-03-23T23:14:46.207Z,31.05
2019-03-23T23:17:13.645Z,29.15
2019-03-23T23:19:40.955Z,27.42
2019-03-23T23:22:08.391Z,25.92
2019-03-23T23:24:35.790Z,26.85
2019-03-23T23:27:03.183Z,27.90
2019-03-23T23:29:30.467Z,28.05
2019-03-23T23:31:59.404Z,29.63
2019-03-23T23:34:28.976Z,27.22
2019-03-23T23:36:56.290Z,24.90
2019-03-23T23:39:23.542Z,29.07
2019-03-23T23:41:51.031Z,25.88
2019-03-23T23:44:18.383Z,27.10
2019-03-23T23:46:45.679Z,29.95
2019-03-23T23:49:13.517Z,26.93
2019-03-23T23:51:49.739Z,29.07
2019-03-23T23:54:11.392Z,25.27
2019-03-23T23:56:38.906Z,27.17
2019-03-23T23:59:06.310Z,28.67
